Wilson Maas — 8PSZ — position and weather

sailwx.info

Track history (hours):
 
Tides and Currents Weather Stations Pressure Air Temp Water Temp Dewpoint Dewpoint Depression Visibility Wind Speed Wind Dir Waves Ship Positions

Wilson Maas

Last reported at 2016-Feb-13 01:10 UTC. Time now 2016-Feb-14 12:43 UTC.
Position N 66°16' E 011°57'.

Length 78 m; draft 3.1 m.

Type: Cargo ship. MMSI: 314217000.

Date/timePositionNaut miles runAvg speedWind from/ knotsBaromVisibWave heightAir tempDewpointWater temp
2016-Feb-13 01:10N 66°16' E 011°57'711.2
2016-Feb-13 00:33N 66°17' E 012°14'1110.9
2016-Feb-12 23:33N 66°14' E 012°39'4 0.1
2016-Feb-11 01:29N 66°15' E 012°30'170 5.3
2016-Feb-09 17:23N 63°44' E 009°23'5 6.6
2016-Feb-09 16:33N 63°40' E 009°15'8 8.4
2016-Feb-09 15:33N 63°31' E 009°11'289 9.6
2016-Feb-08 09:25N 59°12' E 004°44'910.6
2016-Feb-08 08:33N 59°03' E 004°47'1110.8
2016-Feb-08 07:33N 58°52' E 004°52'1010.4
2016-Feb-08 06:34N 58°42' E 004°56'1010.3
2016-Feb-08 05:33N 58°32' E 005°02'25610.1
2016-Feb-07 04:09N 54°16' E 005°11'610.4
2016-Feb-07 03:33N 54°10' E 005°10'1010.4
2016-Feb-07 02:34N 54°00' E 005°06'1010.4
2016-Feb-07 01:33N 53°50' E 004°60'1210.2
2016-Feb-07 00:24N 53°39' E 004°52'88 9.8
2016-Feb-06 15:30N 52°20' E 003°52'1111.1
2016-Feb-06 14:33N 52°09' E 003°55'1110.9
2016-Feb-06 13:33N 51°60' E 004°02'10 9.9
2016-Feb-06 12:33N 51°54' E 004°16'5 5.0
2016-Feb-06 11:28N 51°55' E 004°25'0 0.0
2016-Feb-06 10:31N 51°55' E 004°25'0 0.0
2016-Feb-06 09:28N 51°55' E 004°25'0 0.0
2016-Feb-06 08:31N 51°55' E 004°25'0 0.0
2016-Feb-06 07:25N 51°55' E 004°25'0 0.0
2016-Feb-06 06:31N 51°55' E 004°25'0 0.0
2016-Feb-06 05:31N 51°55' E 004°25'0 0.0
2016-Feb-06 04:31N 51°55' E 004°25'0 0.0
2016-Feb-06 03:31N 51°55' E 004°25'0 0.0
2016-Feb-06 02:31N 51°55' E 004°25'0 0.0
2016-Feb-06 01:31N 51°55' E 004°25'0 0.0
2016-Feb-06 00:28N 51°55' E 004°25'0 0.0
2016-Feb-05 23:31N 51°55' E 004°25'0 0.0
2016-Feb-05 22:31N 51°55' E 004°25'0 0.0
2016-Feb-05 21:25N 51°55' E 004°25'4 4.3
2016-Feb-05 20:33N 51°54' E 004°31'10 9.9
2016-Feb-05 19:33N 51°49' E 004°44'1212.0
2016-Feb-05 18:32N 51°50' E 005°04'5510.7
2016-Feb-05 13:26N 51°40' E 006°31'8 9.5
2016-Feb-05 12:33N 51°34' E 006°41'  
Track history (hours):
 
Tides and Currents Weather Stations Pressure Air Temp Water Temp Dewpoint Dewpoint Depression Visibility Wind Speed Wind Dir Waves Ship Positions

Wilson Maas

Last reported at 2016-Feb-13 01:10 UTC. Time now 2016-Feb-14 12:43 UTC.
Position N 66°16' E 011°57'.

Length 78 m; draft 3.1 m.

Type: Cargo ship. MMSI: 314217000.

Date/timePositionNaut miles runAvg speedWind from/ knotsBaromVisibWave heightAir tempDewpointWater temp
2016-Feb-13 01:10N 66°16' E 011°57'711.2
2016-Feb-13 00:33N 66°17' E 012°14'1110.9
2016-Feb-12 23:33N 66°14' E 012°39'4 0.1
2016-Feb-11 01:29N 66°15' E 012°30'170 5.3
2016-Feb-09 17:23N 63°44' E 009°23'5 6.6
2016-Feb-09 16:33N 63°40' E 009°15'8 8.4
2016-Feb-09 15:33N 63°31' E 009°11'289 9.6
2016-Feb-08 09:25N 59°12' E 004°44'910.6
2016-Feb-08 08:33N 59°03' E 004°47'1110.8
2016-Feb-08 07:33N 58°52' E 004°52'1010.4
2016-Feb-08 06:34N 58°42' E 004°56'1010.3
2016-Feb-08 05:33N 58°32' E 005°02'25610.1
2016-Feb-07 04:09N 54°16' E 005°11'610.4
2016-Feb-07 03:33N 54°10' E 005°10'1010.4
2016-Feb-07 02:34N 54°00' E 005°06'1010.4
2016-Feb-07 01:33N 53°50' E 004°60'1210.2
2016-Feb-07 00:24N 53°39' E 004°52'88 9.8
2016-Feb-06 15:30N 52°20' E 003°52'1111.1
2016-Feb-06 14:33N 52°09' E 003°55'1110.9
2016-Feb-06 13:33N 51°60' E 004°02'10 9.9
2016-Feb-06 12:33N 51°54' E 004°16'5 5.0
2016-Feb-06 11:28N 51°55' E 004°25'0 0.0
2016-Feb-06 10:31N 51°55' E 004°25'0 0.0
2016-Feb-06 09:28N 51°55' E 004°25'0 0.0
2016-Feb-06 08:31N 51°55' E 004°25'0 0.0
2016-Feb-06 07:25N 51°55' E 004°25'0 0.0
2016-Feb-06 06:31N 51°55' E 004°25'0 0.0
2016-Feb-06 05:31N 51°55' E 004°25'0 0.0
2016-Feb-06 04:31N 51°55' E 004°25'0 0.0
2016-Feb-06 03:31N 51°55' E 004°25'0 0.0
2016-Feb-06 02:31N 51°55' E 004°25'0 0.0
2016-Feb-06 01:31N 51°55' E 004°25'0 0.0
2016-Feb-06 00:28N 51°55' E 004°25'0 0.0
2016-Feb-05 23:31N 51°55' E 004°25'0 0.0
2016-Feb-05 22:31N 51°55' E 004°25'0 0.0
2016-Feb-05 21:25N 51°55' E 004°25'4 4.3
2016-Feb-05 20:33N 51°54' E 004°31'10 9.9
2016-Feb-05 19:33N 51°49' E 004°44'1212.0
2016-Feb-05 18:32N 51°50' E 005°04'5510.7
2016-Feb-05 13:26N 51°40' E 006°31'8 9.5
2016-Feb-05 12:33N 51°34' E 006°41'  

Dump ship's entire track history